WEATHER DATA

YESTERDAY
Time Temp. Dewp. Hum. Wind dir Wind speed Wind gust Bar. 1h Prec. 24h Prec.
00:06 3.7 2.2 90 0 0 1031.2 0.0000 0.0000
00:16 3.7 2.2 90 0 0 1031.2 0.0000 0.0000
00:26 3.6 2.1 90 0 0 1031.5 0.0000 0.0000
00:37 3.6 2.1 90 0 0 1031.3 0.0000 0.0000
00:46 3.6 2.1 90 0 0 1031.3 0.0000 0.0000
00:56 3.6 2.1 90 0 0 1031.2 0.0000 0.0000
01:06 3.6 2.1 90 0 0 1031.2 0.0000 0.0000
01:17 3.6 2.1 90 0 0 1031 0.0000 0.0000
01:27 3.6 2.1 90 0 0 1031 0.0000 0.0000
01:36 3.6 2.1 90 0 0 1030.8 0.0000 0.0000
01:47 3.6 2.1 90 0 0 1030.6 0.0000 0.0000
01:57 3.6 2.1 90 0 0 1030.5 0.0000 0.0000
02:07 3.5 2 90 0 0 1030.6 0.0000 0.0000
02:17 3.5 2 90 0 0 1030.6 0.0000 0.0000
02:27 3.5 2 90 0 0 1030.6 0.0000 0.0000
02:37 3.5 2 90 0 0 1030.6 0.0000 0.0000
02:47 3.5 2 90 0 0 1030.2 0.0000 0.0000
02:58 3.4 1.9 90 0 0 1030.3 0.0000 0.0000
03:08 3.5 2 90 0 0 1030.1 0.0000 0.0000
03:17 3.6 2.1 90 0 0 1030.2 0.0000 0.0000
03:27 3.6 2.1 90 0 0 1030.3 0.0000 0.0000
03:38 3.6 2 89 0 0 1029.7 0.0000 0.0000
03:48 3.5 1.9 89 0 0 1029.6 0.0000 0.0000
03:58 3.4 1.8 89 0 0 1029.9 0.0000 0.0000
04:08 3.4 1.9 90 0 0 1029.7 0.0000 0.0000
04:18 3.3 1.8 90 0 0 1029.7 0.0000 0.0000
04:28 3.3 1.8 90 0 0 1029.9 0.0000 0.0000
04:38 3.2 1.7 90 0 0 1029.8 0.0000 0.0000
04:49 3.2 1.7 90 0 0 1029.7 0.0000 0.0000
04:58 3.2 1.7 90 0 0 1029.8 0.0000 0.0000
05:08 3.1 1.6 90 0 0 1030 0.0000 0.0000
05:18 3.1 1.6 90 0 0 1030.1 0.0000 0.0000
05:29 3 1.5 90 0 0 1029.9 0.0000 0.0000
05:41 2.9 1.4 90 0 0 1029.5 0.0000 0.0000
05:50 2.9 1.4 90 0 0 1029.2 0.0000 0.0000
06:00 2.8 1.3 90 0 0 1029.1 0.0000 0.0000
06:11 2.8 1.3 90 0 0 1029.2
06:21 2.7 1.2 90 0 0 1029.5
06:31 2.7 1.2 90 0 0 1029.3
06:41 2.7 1.2 90 0 0 1029.4
06:51 2.6 1.1 90 0 0 1029.3
07:01 2.6 1.1 90 0 0 1029.1
07:04 2.6 1.1 90 0 0 1028.9 0.0000 0.0000
07:14 2.5 1 90 0 0 1028.7 0.0000 0.0000
07:24 2.5 1 90 0 0 1028.5 0.0000 0.0000
07:34 2.5 1 90 0 0 1028.4 0.0000 0.0000
07:44 2.5 1 90 0 0 1028.7 0.0000 0.0000
07:54 2.5 1 90 0 0 1028.8 0.0000 0.0000
08:04 2.4 0.9 90 0 0 1028.7 0.0000 0.0000
08:14 2.4 0.9 90 0 0 1028.7 0.0000 0.0000
08:25 2.4 0.9 90 0 0 1028.9 0.0000 0.0000
08:34 2.4 0.9 90 0 0 1029.1
08:52 2.3 0.8 90 0 0 1029.1 0.0000 0.0000
09:02 2.3 0.8 90 0 0 1029.1 0.0000 0.0000
09:13 2.3 0.8 90 0 0 1029.1 0.0000 0.0000
09:23 2.3 0.8 90 0 0 1028.9 0.0000 0.0000
09:33 2.3 0.8 90 0 0 1029.2 0.0000 0.0000
09:42 2.4 0.9 90 0 0 1029.1 0.0000 0.0000
10:03 2.4 0.9 90 0 0 1029.1 0.0000 0.0000
10:13 2.4 0.9 90 0 0 1029.2 0.0000 0.0000
10:23 2.4 0.9 90 0 0 1029.2 0.0000 0.0000
10:33 2.5 1 90 0 0 1029.2 0.0000 0.0000
10:43 2.5 1 90 0 0 1029.2 0.0000 0.0000
10:53 2.5 1 90 0 0 1029.1 0.0000 0.0000
11:04 2.6 1.1 90 0 0 1029.1 0.0000 0.0000
11:14 2.6 1.1 90 0 0 1028.8 0.0000 0.0000
11:23 2.7 1.2 90 0 0 1029.1 0.0000 0.0000
11:34 2.7 1.2 90 0 0 1029 0.0000 0.0000
11:44 2.8 1.3 90 0 0 1028.9 0.0000 0.0000
11:54 2.8 1.3 90 0 0 1028.9 0.0000 0.0000
12:04 2.9 1.4 90 0 0 1028.8 0.0000 0.0000
12:14 2.9 1.4 90 0 0 1028.7 0.0000 0.0000
12:24 3 1.5 90 0 0 1028.7 0.0000 0.0000
12:34 3.1 1.6 90 0 0 1028.5 0.0000 0.0000
12:44 3.1 1.6 90 0 0 1028.4 0.0000 0.0000
12:55 3.2 1.7 90 0 0 1028.4 0.0000 0.0000
13:04 3.2 1.7 90 0 0 1028.2 0.0000 0.0000
13:14 3.2 1.7 90 0 0 1028.3 0.0000 0.0000
13:25 3.2 1.7 90 0 0 1028.2 0.0000 0.0000
13:35 3.2 1.7 90 0 0 1028 0.0000 0.0000
13:45 3.3 1.8 90 0 0 1028 0.0000 0.0000
13:55 3.3 1.8 90 0 0 1027.8 0.0000 0.0000
14:05 3.4 1.9 90 0 0 1027.7 0.0000 0.0000
14:15 3.5 2 90 0 0 1027.6 0.0000 0.0000
14:25 3.6 2.1 90 0 0 1027.4 0.0000 0.0000
14:36 3.6 2.1 90 0 0 1027.3 0.0000 0.0000
14:45 3.7 2.2 90 0 0 1027.2 0.0000 0.0000
14:55 3.7 2.2 90 0 0 1027.1 0.0000 0.0000
15:05 3.8 2.3 90 0 0 1027.1 0.0000 0.0000
15:16 3.8 2.3 90 0 0 1026.9 0.0000 0.0000
15:26 3.9 2.4 90 0 0 1026.7 0.0000 0.0000
15:35 3.9 2.4 90 0 0 1026.8 0.0000 0.0000
15:46 3.9 2.4 90 0 0 1026.7 0.0000 0.0000
15:56 3.9 2.4 90 0 0 1026.6 0.0000 0.0000
16:06 4 2.5 90 0 0 1026.6 0.0000 0.0000
16:16 4 2.5 90 0 0 1026.4 0.0000 0.0000
16:26 4 2.5 90 0 0 1026.4 0.0000 0.0000
16:36 4.1 2.6 90 0 0 1026.4 0.0000 0.0000
16:46 4.1 2.6 90 0 0 1026.4 0.0000 0.0000
16:56 4.1 2.6 90 0 0 1026.4 0.0000 0.0000
17:07 4.1 2.6 90 0 0 1026.3 0.0000 0.0000
17:16 4.1 2.6 90 0 0 1026.1 0.0000 0.0000
17:26 4.1 2.6 90 0 0 1026.1 0.0000 0.0000
17:37 4.2 2.7 90 0 0 1025.9 0.0000 0.0000
17:47 4.2 2.7 90 0 0 1026.1
17:57 4.2 2.7 90 0 0 1025.9
18:07 4.2 2.7 90 0 0 1025.8
18:17 4.2 2.7 90 0 0 1025.7
18:27 4.2 2.7 90 0 0 1025.6
18:37 4.2 2.7 90 0 0 1025.5
18:48 4.3 2.8 90 0 0 1025.4
19:00 4.4 2.9 90 0 0 1025.3 0.0000 0.0000
19:10 4.4 2.9 90 0 0 1025.2 0.0000 0.0000
19:20 4.5 3 90 0 0 1025 0.0000 0.0000
19:30 4.5 3 90 0 0 1024.9 0.0000 0.0000
19:41 4.6 3.1 90 0 0 1024.7 0.0000 0.0000
19:50 4.6 3.1 90 0 0 1024.5 0.0000 0.0000
20:00 4.7 3.2 90 0 0 1024.4 0.0000 0.0000
20:10 4.7 3.2 90 0 0 1024.3 0.0000 0.0000
20:21 4.7 3.2 90 0 0 1024.4 0.0000 0.0000
20:31 4.7 3.2 90 0 0 1024.1 0.0000 0.0000
20:40 4.7 3.2 90 0 0 1024.2 0.0000 0.0000
20:51 4.7 3.2 90 0 0 1024.1 0.0000 0.0000
21:01 4.7 3.2 90 0 0 1024.1 0.0000 0.0000
21:11 4.7 3.2 90 0 0 1023.8 0.0000 0.0000
21:21 4.8 3.3 90 0 0 1023.8 0.0000 0.0000
21:31 4.8 3.3 90 0 0 1023.6 0.0000 0.0000
21:41 4.8 3.3 90 0 0 1023.7 0.0000 0.0000
21:51 4.9 3.4 90 0 0 1023.5 0.0000 0.0000
22:01 4.9 3.4 90 0 0 1023.4 0.0000 0.0000
22:12 4.9 3.4 90 0 0 1023.4 0.0000 0.0000
22:21 4.9 3.4 90 0 0 1023.2 0.0000 0.0000
22:31 5 3.5 90 0 0 1023.2 0.0000 0.0000
22:42 5 3.5 90 0 0 1023.1 0.0000 0.0000
22:52 5.1 3.6 90 0 0 1022.9 0.0000 0.0000
23:02 5.1 3.6 90 0 0 1022.8 0.0000 0.0000
23:12 5.1 3.6 90 0 0 1022.8 0.0000 0.0000
23:32 5.2 3.7 90 0 0 1022.6 0.0000 0.0000
23:42 5.2 3.7 90 0 0 1022.3 0.0000 0.0000
23:53 5.2 3.5 89 0 0 1022.1 0.0000

DAY STATISTIC

2022-01-26
TEMPERATURE
AVERAGE
3.6
HIGH
5.2
23:32
LOW
2.3
08:52
PRESSURE
AVERAGE
1027.7
HIGH
1031.5
00:26
LOW
1022.1
23:53
DEWPOINT
AVERAGE
2.1
HIGH
3.7
23:32
LOW
0.8
08:52
HUMIDITY
AVERAGE
90
HIGH
90
00:06
LOW
89
03:38
WIND SPEED
AVERAGE
0.0
HIGH
0.0
17:40
WIND GUST
AVERAGE
0.0
HIGH
0.0
17:40
WIND DIRECTION
PREVAILING
%
PRECIPITATION
RAIN HOUR
0.0
RAIN DAY
0.0
TEMPERATURE (°C)
LOW
2.3
HIGH
5.2
AVERAGE
3.6
PRESSURE (hpa)
LOW
1022.1
HIGH
1031.5
AVERAGE
1027.7
DEVICE